Time,TemperatureF,DewpointF,PressureIn,WindDirection,WindDirectionDegrees,WindSpeedMPH,WindSpeedGustMPH,Humidity,HourlyPrecipIn,Conditions,Clouds,dailyrainin,SolarRadiationWatts/m^2,SoftwareType,DateUTC
2013-02-17 00:02:00,35.0,32.0,-100.00,North,349,19.0,34.0,88,0.00,,,0.00,0.000000,,2013-02-17 05:02:00,
2013-02-17 00:12:00,35.0,32.0,-100.00,North,349,19.0,34.0,88,0.00,,,0.00,0.000000,,2013-02-17 05:12:00,
2013-02-17 00:22:00,35.0,32.0,-100.00,North,349,19.0,34.0,88,0.00,,,0.00,0.000000,,2013-02-17 05:22:00,
2013-02-17 00:52:00,34.0,29.0,-100.00,NNW,338,17.0,33.0,83,0.00,,,0.00,0.000000,,2013-02-17 05:52:00,
2013-02-17 01:02:00,34.0,29.0,-100.00,NNW,338,17.0,33.0,83,0.00,,,0.00,0.000000,,2013-02-17 06:02:00,
2013-02-17 01:11:00,34.0,29.0,-100.00,NNW,338,17.0,33.0,83,0.00,,,0.00,0.000000,,2013-02-17 06:11:00,
2013-02-17 01:21:00,34.0,29.0,-100.00,NNW,338,17.0,33.0,83,0.00,,,0.00,0.000000,,2013-02-17 06:21:00,
2013-02-17 01:52:00,33.0,31.0,-100.00,NW,325,16.0,27.0,94,0.00,,,0.00,0.000000,,2013-02-17 06:52:00,
2013-02-17 02:01:00,33.0,31.0,-100.00,NW,325,16.0,27.0,94,0.00,,,0.00,0.000000,,2013-02-17 07:01:00,
2013-02-17 02:11:00,33.0,31.0,-100.00,NW,325,16.0,27.0,94,0.00,,,0.00,0.000000,,2013-02-17 07:11:00,
2013-02-17 02:21:00,33.0,31.0,-100.00,NW,325,16.0,27.0,94,0.00,,,0.00,0.000000,,2013-02-17 07:21:00,
2013-02-17 02:52:00,34.0,31.0,-100.00,WNW,294,14.0,23.0,87,0.00,,,0.00,0.000000,,2013-02-17 07:52:00,
2013-02-17 03:01:00,34.0,31.0,-100.00,WNW,294,14.0,23.0,87,0.00,,,0.00,0.000000,,2013-02-17 08:01:00,
2013-02-17 03:11:00,34.0,31.0,-100.00,WNW,294,14.0,23.0,87,0.00,,,0.00,0.000000,,2013-02-17 08:11:00,
2013-02-17 03:22:00,34.0,31.0,-100.00,WNW,294,14.0,23.0,87,0.00,,,0.00,0.000000,,2013-02-17 08:22:00,
2013-02-17 03:52:00,32.0,26.0,-100.00,WNW,290,17.0,23.0,78,0.00,,,0.00,0.000000,,2013-02-17 08:52:00,
2013-02-17 04:02:00,32.0,26.0,-100.00,WNW,290,17.0,23.0,78,0.00,,,0.00,0.000000,,2013-02-17 09:02:00,
2013-02-17 04:11:00,32.0,26.0,-100.00,WNW,290,17.0,23.0,78,0.00,,,0.00,0.000000,,2013-02-17 09:11:00,
2013-02-17 04:21:00,32.0,26.0,-100.00,WNW,290,17.0,23.0,78,0.00,,,0.00,0.000000,,2013-02-17 09:21:00,
2013-02-17 04:52:00,32.0,23.0,-100.00,WNW,298,16.0,25.0,69,0.00,,,0.00,0.000000,,2013-02-17 09:52:00,
2013-02-17 05:01:00,32.0,23.0,-100.00,WNW,298,16.0,25.0,69,0.00,,,0.00,0.000000,,2013-02-17 10:01:00,
2013-02-17 05:11:00,32.0,23.0,-100.00,WNW,298,16.0,25.0,69,0.00,,,0.00,0.000000,,2013-02-17 10:11:00,
2013-02-17 05:21:00,32.0,23.0,-100.00,WNW,298,16.0,25.0,69,0.00,,,0.00,0.000000,,2013-02-17 10:21:00,
2013-02-17 05:52:00,31.0,21.0,-100.00,WNW,296,17.0,24.0,65,0.00,,,0.00,0.000000,,2013-02-17 10:52:00,
2013-02-17 06:01:00,31.0,21.0,-100.00,WNW,296,17.0,24.0,65,0.00,,,0.00,0.000000,,2013-02-17 11:01:00,
2013-02-17 06:11:00,31.0,21.0,-100.00,WNW,296,17.0,24.0,65,0.00,,,0.00,0.000000,,2013-02-17 11:11:00,
2013-02-17 06:22:00,31.0,21.0,-100.00,WNW,296,17.0,24.0,65,0.00,,,0.00,0.000000,,2013-02-17 11:22:00,
2013-02-17 06:53:00,30.0,20.0,-100.00,WNW,290,15.0,22.0,65,0.02,,,0.02,0.000000,,2013-02-17 11:53:00,
2013-02-17 07:03:00,30.0,20.0,-100.00,WNW,290,15.0,22.0,65,0.02,,,0.02,0.000000,,2013-02-17 12:03:00,
2013-02-17 07:11:00,30.0,20.0,-100.00,WNW,290,15.0,22.0,65,0.02,,,0.02,0.000000,,2013-02-17 12:11:00,
2013-02-17 07:22:00,30.0,20.0,-100.00,WNW,290,15.0,22.0,65,0.02,,,0.02,0.000000,,2013-02-17 12:22:00,
2013-02-17 07:52:00,31.0,18.0,-100.00,WNW,296,17.0,24.0,57,0.01,,,0.03,17.000000,,2013-02-17 12:52:00,
2013-02-17 08:02:00,31.0,18.0,-100.00,WNW,296,17.0,24.0,57,0.01,,,0.03,17.000000,,2013-02-17 13:02:00,
2013-02-17 08:12:00,31.0,18.0,-100.00,WNW,296,17.0,24.0,57,0.01,,,0.03,17.000000,,2013-02-17 13:12:00,
2013-02-17 08:22:00,31.0,18.0,-100.00,WNW,296,17.0,24.0,57,0.01,,,0.03,17.000000,,2013-02-17 13:22:00,
2013-02-17 08:52:00,33.0,20.0,-100.00,West,273,15.0,24.0,59,0.01,,,-99.99,168.000000,,2013-02-17 13:52:00,
2013-02-17 09:01:00,33.0,20.0,-100.00,West,273,15.0,24.0,59,0.01,,,-99.99,168.000000,,2013-02-17 14:01:00,
2013-02-17 09:11:00,33.0,20.0,-100.00,West,273,15.0,24.0,59,0.01,,,-99.99,168.000000,,2013-02-17 14:11:00,
2013-02-17 09:22:00,33.0,20.0,-100.00,West,273,15.0,24.0,59,0.01,,,-99.99,168.000000,,2013-02-17 14:22:00,
2013-02-17 09:53:00,34.0,22.0,-100.00,West,276,18.0,24.0,60,0.04,,,0.08,361.000000,,2013-02-17 14:53:00,
2013-02-17 10:02:00,34.0,22.0,-100.00,West,276,18.0,24.0,60,0.04,,,0.08,361.000000,,2013-02-17 15:02:00,
2013-02-17 10:11:00,34.0,22.0,-100.00,West,276,18.0,24.0,60,0.04,,,0.08,361.000000,,2013-02-17 15:11:00,
2013-02-17 10:22:00,34.0,22.0,-100.00,West,276,18.0,24.0,60,0.04,,,0.08,361.000000,,2013-02-17 15:22:00,
2013-02-17 10:52:00,34.0,20.0,-100.00,WNW,294,18.0,28.0,56,0.03,,,0.11,482.000000,,2013-02-17 15:52:00,
2013-02-17 11:01:00,34.0,20.0,-100.00,WNW,294,18.0,28.0,56,0.03,,,0.11,482.000000,,2013-02-17 16:01:00,
2013-02-17 11:12:00,34.0,20.0,-100.00,WNW,294,18.0,28.0,56,0.03,,,0.11,482.000000,,2013-02-17 16:12:00,
2013-02-17 11:21:00,34.0,20.0,-100.00,WNW,294,18.0,28.0,56,0.03,,,0.11,482.000000,,2013-02-17 16:21:00,
2013-02-17 11:52:00,34.0,20.0,-100.00,West,276,16.0,24.0,57,0.01,,,0.12,455.000000,,2013-02-17 16:52:00,
2013-02-17 12:02:00,34.0,20.0,-100.00,West,276,16.0,24.0,57,0.01,,,0.12,455.000000,,2013-02-17 17:02:00,
2013-02-17 12:11:00,34.0,20.0,-100.00,West,276,16.0,24.0,57,0.01,,,0.12,455.000000,,2013-02-17 17:11:00,
2013-02-17 12:21:00,34.0,20.0,-100.00,West,276,16.0,24.0,57,0.01,,,0.12,455.000000,,2013-02-17 17:21:00,
2013-02-17 12:52:00,34.0,20.0,-100.00,West,279,17.0,24.0,55,0.01,,,0.13,560.000000,,2013-02-17 17:52:00,
2013-02-17 13:02:00,34.0,20.0,-100.00,West,279,17.0,24.0,55,0.01,,,0.13,560.000000,,2013-02-17 18:02:00,
2013-02-17 13:11:00,34.0,20.0,-100.00,West,279,17.0,24.0,55,0.01,,,0.13,560.000000,,2013-02-17 18:11:00,
2013-02-17 13:22:00,34.0,20.0,-100.00,West,279,17.0,24.0,55,0.01,,,0.13,560.000000,,2013-02-17 18:22:00,
2013-02-17 13:52:00,35.0,20.0,-100.00,West,266,21.0,28.0,53,0.01,,,0.14,315.000000,,2013-02-17 18:52:00,
2013-02-17 14:02:00,35.0,20.0,-100.00,West,266,21.0,28.0,53,0.01,,,0.14,315.000000,,2013-02-17 19:02:00,
2013-02-17 14:11:00,35.0,20.0,-100.00,West,266,21.0,28.0,53,0.01,,,0.14,315.000000,,2013-02-17 19:11:00,
2013-02-17 14:22:00,35.0,20.0,-100.00,West,266,21.0,28.0,53,0.01,,,0.14,315.000000,,2013-02-17 19:22:00,
2013-02-17 14:52:00,35.0,16.0,-100.00,West,262,25.0,33.0,46,0.01,,,0.15,523.000000,,2013-02-17 19:52:00,
2013-02-17 15:02:00,35.0,16.0,-100.00,West,262,25.0,33.0,46,0.01,,,0.15,523.000000,,2013-02-17 20:02:00,
2013-02-17 15:11:00,35.0,16.0,-100.00,West,262,25.0,33.0,46,0.01,,,0.15,523.000000,,2013-02-17 20:11:00,
2013-02-17 15:22:00,35.0,16.0,-100.00,West,262,25.0,33.0,46,0.01,,,0.15,523.000000,,2013-02-17 20:22:00,
2013-02-17 15:52:00,34.0,15.0,-100.00,West,272,18.0,35.0,46,0.01,,,0.16,369.000000,,2013-02-17 20:52:00,
2013-02-17 16:02:00,34.0,15.0,-100.00,West,272,18.0,35.0,46,0.01,,,0.16,369.000000,,2013-02-17 21:02:00,
2013-02-17 16:11:00,34.0,15.0,-100.00,West,272,18.0,35.0,46,0.01,,,0.16,369.000000,,2013-02-17 21:11:00,
2013-02-17 16:21:00,34.0,15.0,-100.00,West,272,18.0,35.0,46,0.01,,,0.16,369.000000,,2013-02-17 21:21:00,
2013-02-17 16:53:00,33.0,12.0,-100.00,WNW,283,18.0,31.0,41,0.00,,,0.16,125.000000,,2013-02-17 21:53:00,
2013-02-17 17:01:00,33.0,12.0,-100.00,WNW,283,18.0,31.0,41,0.00,,,0.16,125.000000,,2013-02-17 22:01:00,
2013-02-17 17:12:00,33.0,12.0,-100.00,WNW,283,18.0,31.0,41,0.00,,,0.16,125.000000,,2013-02-17 22:12:00,
2013-02-17 17:22:00,33.0,12.0,-100.00,WNW,283,18.0,31.0,41,0.00,,,0.16,125.000000,,2013-02-17 22:22:00,
2013-02-17 17:52:00,34.0,14.0,-100.00,West,275,18.0,27.0,43,0.01,,,0.17,150.000000,,2013-02-17 22:52:00,
2013-02-17 18:02:00,34.0,14.0,-100.00,West,275,18.0,27.0,43,0.01,,,0.17,150.000000,,2013-02-17 23:02:00,
2013-02-17 18:11:00,34.0,14.0,-100.00,West,275,18.0,27.0,43,0.01,,,0.17,150.000000,,2013-02-17 23:11:00,
2013-02-17 18:21:00,34.0,14.0,-100.00,West,275,18.0,27.0,43,0.01,,,0.17,150.000000,,2013-02-17 23:21:00,
2013-02-17 18:52:00,32.0,14.0,-100.00,West,267,20.0,30.0,46,0.01,,,0.18,10.000000,,2013-02-17 23:52:00,
2013-02-17 19:02:00,32.0,14.0,-100.00,West,267,20.0,30.0,46,0.01,,,0.18,10.000000,,2013-02-18 00:02:00,
2013-02-17 19:12:00,32.0,14.0,-100.00,West,267,20.0,30.0,46,0.01,,,0.18,10.000000,,2013-02-18 00:12:00,
2013-02-17 19:22:00,32.0,14.0,-100.00,West,267,20.0,30.0,46,0.01,,,0.18,10.000000,,2013-02-18 00:22:00,
2013-02-17 19:52:00,31.0,13.0,-100.00,West,266,16.0,25.0,46,0.00,,,0.18,0.000000,,2013-02-18 00:52:00,
2013-02-17 20:01:00,31.0,13.0,-100.00,West,266,16.0,25.0,46,0.00,,,0.18,0.000000,,2013-02-18 01:01:00,
2013-02-17 20:12:00,31.0,13.0,-100.00,West,266,16.0,25.0,46,0.00,,,0.18,0.000000,,2013-02-18 01:12:00,
2013-02-17 20:21:00,31.0,13.0,-100.00,West,266,16.0,25.0,46,0.00,,,0.18,0.000000,,2013-02-18 01:21:00,
2013-02-17 20:52:00,31.0,12.0,-100.00,West,273,15.0,23.0,44,0.01,,,0.19,0.000000,,2013-02-18 01:52:00,
2013-02-17 21:02:00,31.0,12.0,-100.00,West,273,15.0,23.0,44,0.01,,,0.19,0.000000,,2013-02-18 02:02:00,
2013-02-17 21:11:00,31.0,12.0,-100.00,West,273,15.0,23.0,44,0.01,,,0.19,0.000000,,2013-02-18 02:11:00,
2013-02-17 21:22:00,31.0,12.0,-100.00,West,273,15.0,23.0,44,0.01,,,0.19,0.000000,,2013-02-18 02:22:00,
2013-02-17 21:52:00,31.0,12.0,-100.00,West,270,13.0,19.0,45,0.01,,,0.20,0.000000,,2013-02-18 02:52:00,
2013-02-17 22:02:00,31.0,12.0,-100.00,West,270,13.0,19.0,45,0.01,,,0.20,0.000000,,2013-02-18 03:02:00,
2013-02-17 22:11:00,31.0,12.0,-100.00,West,270,13.0,19.0,45,0.01,,,0.20,0.000000,,2013-02-18 03:11:00,
2013-02-17 22:22:00,31.0,12.0,-100.00,West,270,13.0,19.0,45,0.01,,,0.20,0.000000,,2013-02-18 03:22:00,
2013-02-17 22:52:00,30.0,13.0,-100.00,West,279,10.0,18.0,48,0.00,,,0.20,0.000000,,2013-02-18 03:52:00,
2013-02-17 23:01:00,30.0,13.0,-100.00,West,279,10.0,18.0,48,0.00,,,0.20,0.000000,,2013-02-18 04:01:00,
2013-02-17 23:11:00,30.0,13.0,-100.00,West,279,10.0,18.0,48,0.00,,,0.20,0.000000,,2013-02-18 04:11:00,
2013-02-17 23:21:00,30.0,13.0,-100.00,West,279,10.0,18.0,48,0.00,,,0.20,0.000000,,2013-02-18 04:21:00,
2013-02-17 23:52:00,29.0,11.0,-100.00,WNW,293,10.0,15.0,46,0.00,,,0.20,0.000000,,2013-02-18 04:52:00,